createdAt,value
2022-12-22T00:01:14.920Z,0.75
2022-12-22T00:06:35.242Z,1.00
2022-12-22T00:11:57.154Z,0.50
2022-12-22T00:17:20.712Z,0.00
2022-12-22T00:22:42.893Z,0.00
2022-12-22T00:28:04.356Z,0.25
2022-12-22T00:33:24.954Z,0.25
2022-12-22T00:38:46.887Z,0.25
2022-12-22T00:44:08.572Z,0.00
2022-12-22T00:49:29.021Z,0.25
2022-12-22T00:54:49.681Z,1.00
2022-12-22T01:00:17.170Z,1.00
2022-12-22T01:05:38.227Z,0.00
2022-12-22T01:10:58.401Z,1.00
2022-12-22T01:16:20.965Z,0.25
2022-12-22T01:21:41.393Z,1.00
2022-12-22T01:27:01.459Z,0.00
2022-12-22T01:32:23.539Z,0.00
2022-12-22T01:37:44.206Z,1.00
2022-12-22T01:43:04.350Z,0.50
2022-12-22T01:48:29.333Z,0.25
2022-12-22T01:53:50.329Z,0.50
2022-12-22T01:59:14.019Z,1.00
2022-12-22T02:04:40.820Z,0.00
2022-12-22T02:10:09.908Z,1.00
2022-12-22T02:15:37.503Z,0.25
2022-12-22T02:21:05.779Z,0.00
2022-12-22T02:26:42.595Z,0.00
2022-12-22T02:32:02.956Z,0.25
2022-12-22T02:37:35.606Z,0.00
2022-12-22T02:43:06.416Z,0.00
2022-12-22T02:48:32.060Z,0.00
2022-12-22T02:53:53.362Z,0.00
2022-12-22T02:59:14.825Z,0.00
2022-12-22T03:04:34.879Z,0.00
2022-12-22T03:09:54.956Z,0.00
2022-12-22T03:15:16.505Z,0.00
2022-12-22T03:20:36.671Z,0.00
2022-12-22T03:25:54.847Z,0.00
2022-12-22T03:31:01.580Z,0.25
2022-12-22T03:36:05.111Z,0.00
2022-12-22T03:41:07.979Z,0.25
2022-12-22T03:46:32.671Z,0.00
2022-12-22T03:51:36.685Z,0.00
2022-12-22T03:56:39.851Z,0.50
2022-12-22T04:01:46.400Z,0.00
2022-12-22T04:06:49.723Z,0.00
2022-12-22T04:12:09.961Z,0.00
2022-12-22T04:17:14.058Z,0.00
2022-12-22T04:22:16.821Z,0.50
2022-12-22T04:27:19.591Z,0.00
2022-12-22T04:32:23.732Z,0.00
2022-12-22T04:37:26.459Z,0.25
2022-12-22T04:42:29.615Z,0.00
2022-12-22T04:47:33.792Z,0.00
2022-12-22T04:52:36.771Z,0.00
2022-12-22T04:57:41.006Z,0.00
2022-12-22T05:02:45.553Z,0.25
2022-12-22T05:07:48.375Z,0.00
2022-12-22T05:12:56.803Z,0.00
2022-12-22T05:18:01.829Z,0.00
2022-12-22T05:23:04.925Z,0.00
2022-12-22T05:28:07.712Z,0.00
2022-12-22T05:33:12.081Z,0.00
2022-12-22T05:38:14.858Z,0.00
2022-12-22T05:43:17.840Z,0.00
2022-12-22T05:48:27.549Z,0.00
2022-12-22T05:53:33.764Z,0.00
2022-12-22T05:58:38.826Z,0.00
2022-12-22T06:03:43.119Z,0.00
2022-12-22T06:08:46.042Z,0.00
2022-12-22T06:13:50.878Z,0.00
2022-12-22T06:18:54.953Z,0.00
2022-12-22T06:23:57.873Z,0.00
2022-12-22T06:29:00.606Z,0.00
2022-12-22T06:34:04.783Z,0.00
2022-12-22T06:39:07.788Z,0.00
2022-12-22T06:44:10.552Z,0.00
2022-12-22T06:49:14.783Z,0.00
2022-12-22T06:54:22.387Z,0.00
2022-12-22T06:59:28.843Z,0.00
2022-12-22T07:04:32.996Z,0.00
2022-12-22T07:09:35.826Z,0.00
2022-12-22T07:14:38.581Z,0.00
2022-12-22T07:19:42.720Z,0.75
2022-12-22T07:24:45.580Z,0.00
2022-12-22T07:29:48.407Z,0.00
2022-12-22T07:34:52.536Z,0.00
2022-12-22T07:39:55.288Z,0.00
2022-12-22T07:44:58.142Z,0.00
2022-12-22T07:50:19.639Z,0.00
2022-12-22T07:55:23.069Z,0.00
2022-12-22T08:00:26.104Z,0.00
2022-12-22T08:05:31.387Z,0.00
2022-12-22T08:10:34.539Z,1.00
2022-12-22T08:15:38.051Z,0.25
2022-12-22T08:20:42.258Z,1.00
2022-12-22T08:25:46.798Z,0.00
2022-12-22T08:30:49.976Z,0.00
2022-12-22T08:35:56.103Z,0.50
2022-12-22T08:40:59.675Z,0.00
2022-12-22T08:46:02.766Z,0.00
2022-12-22T08:51:07.571Z,0.00
2022-12-22T08:56:10.623Z,0.00
2022-12-22T09:01:18.245Z,0.00
2022-12-22T09:06:27.607Z,1.00
2022-12-22T09:11:31.873Z,0.00
2022-12-22T09:16:35.612Z,0.00
2022-12-22T09:21:39.851Z,0.00
2022-12-22T09:26:42.975Z,0.00
2022-12-22T09:31:46.303Z,0.00
2022-12-22T09:36:50.610Z,0.00
2022-12-22T09:41:56.406Z,0.00
2022-12-22T09:47:01.697Z,0.00
2022-12-22T09:52:06.874Z,0.00
2022-12-22T09:57:13.873Z,0.00
2022-12-22T10:02:27.007Z,0.00
2022-12-22T10:07:34.390Z,0.00
2022-12-22T10:12:37.160Z,0.00
2022-12-22T10:17:39.980Z,0.00
2022-12-22T10:22:50.826Z,0.00
2022-12-22T10:27:57.001Z,0.00
2022-12-22T10:33:08.464Z,0.00
2022-12-22T10:38:21.105Z,0.00
2022-12-22T10:43:27.626Z,0.00
2022-12-22T10:48:33.386Z,0.00
2022-12-22T10:53:45.818Z,0.00
2022-12-22T10:58:54.489Z,0.00
2022-12-22T11:03:58.024Z,0.00
2022-12-22T11:09:31.431Z,0.00
2022-12-22T11:14:33.543Z,0.00
2022-12-22T11:20:04.352Z,0.00
2022-12-22T11:25:24.258Z,0.00
2022-12-22T11:30:37.620Z,0.00
2022-12-22T11:35:52.354Z,0.00
2022-12-22T11:41:05.305Z,0.00
2022-12-22T11:46:23.188Z,0.75
2022-12-22T11:51:44.319Z,0.00
2022-12-22T11:57:00.533Z,0.00
2022-12-22T12:02:25.646Z,0.00
2022-12-22T12:07:34.204Z,0.00
2022-12-22T12:12:49.384Z,0.00
2022-12-22T12:18:20.890Z,0.00
2022-12-22T12:23:48.542Z,0.00
2022-12-22T12:29:06.415Z,0.00
2022-12-22T12:34:13.560Z,0.00
2022-12-22T12:39:21.929Z,0.00
2022-12-22T12:44:29.800Z,0.00
2022-12-22T12:49:58.554Z,0.00
2022-12-22T12:55:31.346Z,0.00
2022-12-22T13:00:53.814Z,0.00
2022-12-22T13:06:01.699Z,0.00
2022-12-22T13:12:10.665Z,0.00
2022-12-22T13:17:35.441Z,0.00
2022-12-22T13:22:38.654Z,0.00
2022-12-22T13:27:41.798Z,0.00
2022-12-22T13:32:48.987Z,0.00
2022-12-22T13:37:53.866Z,0.00
2022-12-22T13:43:01.695Z,0.00
2022-12-22T13:48:13.495Z,0.00
2022-12-22T13:53:58.146Z,0.00
2022-12-22T13:58:46.087Z,0.00
2022-12-22T14:04:02.222Z,0.00
2022-12-22T14:09:18.315Z,0.00
2022-12-22T14:14:26.021Z,0.00
2022-12-22T14:19:33.995Z,0.00
2022-12-22T14:24:44.017Z,0.00
2022-12-22T14:29:47.060Z,0.00
2022-12-22T14:34:55.401Z,0.00
2022-12-22T14:39:58.468Z,0.00
2022-12-22T14:45:01.333Z,0.00
2022-12-22T14:50:17.744Z,0.00
2022-12-22T14:55:29.321Z,0.00
2022-12-22T15:00:35.855Z,0.00
2022-12-22T15:05:42.087Z,0.00
2022-12-22T15:10:45.830Z,0.00
2022-12-22T15:15:50.401Z,0.00
2022-12-22T15:20:55.013Z,0.00
2022-12-22T15:25:57.819Z,0.00
2022-12-22T15:31:01.827Z,0.00
2022-12-22T15:36:07.324Z,0.00
2022-12-22T15:41:10.331Z,0.00
2022-12-22T15:46:18.903Z,0.75
2022-12-22T15:51:25.912Z,0.00
2022-12-22T15:56:33.574Z,0.00
2022-12-22T16:01:36.836Z,0.00
2022-12-22T16:06:41.208Z,0.00
2022-12-22T16:11:44.018Z,0.00
2022-12-22T16:16:47.125Z,0.00
2022-12-22T16:21:54.014Z,0.00
2022-12-22T16:26:58.172Z,0.00
2022-12-22T16:32:17.946Z,0.00
2022-12-22T16:37:22.383Z,0.00
2022-12-22T16:47:45.871Z,0.00
2022-12-22T16:52:51.918Z,0.00
2022-12-22T16:57:54.900Z,0.00
2022-12-22T17:03:02.426Z,0.00
2022-12-22T17:08:09.478Z,0.00
2022-12-22T17:13:12.916Z,0.00
2022-12-22T17:18:17.738Z,0.00
2022-12-22T17:23:31.471Z,0.00
2022-12-22T17:28:34.784Z,1.00
2022-12-22T17:33:37.565Z,1.50
2022-12-22T17:38:41.762Z,3.00
2022-12-22T17:43:45.229Z,1.00
2022-12-22T17:48:49.019Z,2.00
2022-12-22T17:53:54.823Z,1.00
2022-12-22T17:58:57.794Z,1.00
2022-12-22T18:04:00.871Z,1.75
2022-12-22T18:09:07.224Z,1.00
2022-12-22T18:14:12.995Z,2.00
2022-12-22T18:19:15.847Z,2.00
2022-12-22T18:24:20.764Z,2.00
2022-12-22T18:29:23.538Z,2.00
2022-12-22T18:34:26.521Z,1.00
2022-12-22T18:39:31.632Z,1.75
2022-12-22T18:44:34.656Z,1.25
2022-12-22T18:49:37.559Z,2.00
2022-12-22T18:54:41.836Z,2.00
2022-12-22T18:59:45.795Z,1.00
2022-12-22T19:04:49.010Z,2.00
2022-12-22T19:09:53.267Z,2.25
2022-12-22T19:15:03.558Z,1.00
2022-12-22T19:20:11.595Z,1.50
2022-12-22T19:25:17.406Z,1.25
2022-12-22T19:30:23.148Z,1.50
2022-12-22T19:35:25.989Z,1.00
2022-12-22T19:40:33.389Z,2.00
2022-12-22T19:45:36.771Z,1.00
2022-12-22T19:50:39.935Z,3.00
2022-12-22T19:55:47.146Z,2.50
2022-12-22T20:00:50.465Z,1.50
2022-12-22T20:05:54.711Z,2.00
2022-12-22T20:11:00.325Z,2.25
2022-12-22T20:16:03.352Z,2.00
2022-12-22T20:21:08.400Z,2.00
2022-12-22T20:26:17.327Z,3.75
2022-12-22T20:31:22.406Z,2.00
2022-12-22T20:36:29.993Z,3.00
2022-12-22T20:41:34.255Z,3.50
2022-12-22T20:46:37.317Z,4.00
2022-12-22T20:51:40.290Z,3.00
2022-12-22T20:56:46.144Z,4.00
2022-12-22T21:01:50.268Z,4.00
2022-12-22T21:06:55.126Z,4.75
2022-12-22T21:11:59.271Z,4.00
2022-12-22T21:17:02.251Z,5.25
2022-12-22T21:22:05.728Z,5.00
2022-12-22T21:27:18.188Z,5.50
2022-12-22T21:32:21.367Z,4.50
2022-12-22T21:37:24.193Z,6.00
2022-12-22T21:42:28.378Z,6.50
2022-12-22T21:47:31.264Z,6.50
2022-12-22T21:52:34.730Z,8.00
2022-12-22T21:57:38.893Z,9.00
2022-12-22T22:02:42.097Z,23.60
2022-12-22T22:07:45.264Z,10.00
2022-12-22T22:12:49.357Z,10.00
2022-12-22T22:17:52.161Z,11.00
2022-12-22T22:22:57.004Z,10.25
2022-12-22T22:28:01.184Z,11.00
2022-12-22T22:33:04.431Z,11.00
2022-12-22T22:38:07.235Z,8.75
2022-12-22T22:43:12.114Z,10.00
2022-12-22T22:48:21.109Z,10.00
2022-12-22T22:53:24.067Z,11.00
2022-12-22T22:58:29.541Z,9.00
2022-12-22T23:03:33.040Z,9.50
2022-12-22T23:08:36.556Z,9.00
2022-12-22T23:13:40.664Z,10.00
2022-12-22T23:18:43.457Z,8.75
2022-12-22T23:23:46.318Z,9.00
2022-12-22T23:28:50.405Z,9.00
2022-12-22T23:33:53.499Z,9.00
2022-12-22T23:38:56.310Z,9.25
2022-12-22T23:44:00.393Z,10.00
2022-12-22T23:49:03.239Z,8.75
2022-12-22T23:54:06.350Z,9.25
2022-12-22T23:59:10.476Z,8.75
